Metamora, Ohio
Current Conditions -  °F | °C
As of 12:52 PM on Saturday 25 Oct 2014 (Local Time) from KTOL Reporting Station
Broken Clouds Broken Clouds  
Wind Chill: 63°   Ceiling: 1800
Heat Index: 63°   Visibility: 7mi
Dew Point: 53°   Wind: 16mph
Humidity: 70%   Direction: 260°W
Pressure: 29.84"   Gusts: 23mph
Location:  41.71°N, 83.91°W
Report Text: KTOL 251652Z 26014G20KT 7SM BKN018 17/12 A2984 RMK AO2 SLP106 T01720117
Loading
Personal Weather Stations






























Interactive Weather Map
Tropical Storm Tracking
New forecast layout! Learn more

10-Day Weather Forecast

Advertisements
Track Severe Weather on mobile